createdAt,value
2022-09-14T00:00:20.425Z,1.90
2022-09-14T00:03:12.731Z,2.47
2022-09-14T00:05:47.454Z,1.90
2022-09-14T00:08:17.230Z,2.37
2022-09-14T00:10:50.664Z,2.00
2022-09-14T00:13:24.716Z,1.93
2022-09-14T00:15:56.611Z,1.73
2022-09-14T00:18:33.250Z,1.90
2022-09-14T00:21:19.029Z,2.10
2022-09-14T00:23:50.832Z,1.80
2022-09-14T00:26:27.391Z,1.93
2022-09-14T00:29:15.927Z,2.30
2022-09-14T00:31:51.314Z,2.10
2022-09-14T00:34:37.584Z,2.27
2022-09-14T00:37:11.690Z,2.20
2022-09-14T00:39:49.320Z,2.10
2022-09-14T00:42:30.060Z,2.20
2022-09-14T00:45:16.929Z,2.50
2022-09-14T00:47:48.300Z,2.30
2022-09-14T00:50:27.005Z,2.00
2022-09-14T00:53:09.541Z,2.70
2022-09-14T00:55:54.093Z,2.20
2022-09-14T00:58:27.539Z,2.10
2022-09-14T01:01:05.304Z,2.60
2022-09-14T01:03:39.025Z,2.13
2022-09-14T01:06:30.906Z,2.67
2022-09-14T01:09:20.020Z,2.53
2022-09-14T01:12:16.147Z,2.07
2022-09-14T01:14:53.383Z,2.60
2022-09-14T01:17:29.239Z,2.37
2022-09-14T01:20:19.930Z,2.20
2022-09-14T01:22:58.292Z,2.97
2022-09-14T01:25:39.651Z,2.10
2022-09-14T01:28:16.196Z,2.40
2022-09-14T01:30:50.551Z,2.33
2022-09-14T01:33:21.305Z,2.90
2022-09-14T01:35:51.430Z,2.20
2022-09-14T01:38:23.273Z,2.43
2022-09-14T01:40:56.053Z,2.27
2022-09-14T01:43:39.809Z,2.50
2022-09-14T01:46:18.285Z,2.53
2022-09-14T01:48:56.956Z,2.30
2022-09-14T01:51:36.795Z,2.20
2022-09-14T01:54:14.497Z,2.27
2022-09-14T01:56:50.409Z,2.00
2022-09-14T01:59:27.406Z,2.20
2022-09-14T02:02:00.892Z,1.90
2022-09-14T02:04:36.130Z,2.20
2022-09-14T02:07:06.881Z,2.13
2022-09-14T02:09:38.734Z,2.40
2022-09-14T02:12:22.208Z,2.30
2022-09-14T02:15:24.275Z,2.27
2022-09-14T02:18:04.424Z,2.40
2022-09-14T02:27:29.806Z,2.20
2022-09-14T02:33:59.919Z,3.10
2022-09-14T02:37:07.692Z,2.20
2022-09-14T02:40:15.772Z,2.30
2022-09-14T02:43:29.710Z,2.53
2022-09-14T02:46:41.832Z,2.37
2022-09-14T02:49:32.623Z,2.50
2022-09-14T02:52:34.753Z,2.70
2022-09-14T02:55:26.886Z,2.47
2022-09-14T02:58:30.225Z,2.00
2022-09-14T03:01:30.287Z,2.43
2022-09-14T03:04:17.768Z,2.57
2022-09-14T03:07:15.808Z,2.43
2022-09-14T03:10:18.881Z,2.20
2022-09-14T03:13:05.748Z,2.33
2022-09-14T03:15:44.215Z,2.20
2022-09-14T03:18:21.994Z,2.00
2022-09-14T03:21:13.114Z,2.33
2022-09-14T03:24:05.953Z,2.43
2022-09-14T03:29:54.429Z,2.40
2022-09-14T03:32:47.136Z,2.17
2022-09-14T03:35:37.651Z,1.93
2022-09-14T03:38:15.990Z,2.20
2022-09-14T03:41:02.239Z,2.10
2022-09-14T03:43:47.262Z,2.23
2022-09-14T03:46:26.568Z,2.33
2022-09-14T03:49:04.847Z,2.10
2022-09-14T03:51:59.644Z,2.10
2022-09-14T03:54:51.501Z,2.07
2022-09-14T03:57:46.149Z,2.40
2022-09-14T04:00:38.551Z,2.20
2022-09-14T04:03:35.131Z,1.80
2022-09-14T04:06:31.764Z,2.03
2022-09-14T04:09:18.148Z,1.87
2022-09-14T04:12:04.284Z,2.10
2022-09-14T04:17:49.568Z,1.93
2022-09-14T04:20:30.056Z,1.90
2022-09-14T04:23:19.107Z,1.70
2022-09-14T04:25:56.491Z,1.80
2022-09-14T04:28:32.335Z,1.87
2022-09-14T04:31:08.272Z,1.90
2022-09-14T04:33:55.928Z,1.83
2022-09-14T04:36:44.722Z,2.10
2022-09-14T04:39:19.636Z,1.90
2022-09-14T04:41:55.677Z,1.70
2022-09-14T04:44:39.675Z,1.70
2022-09-14T04:47:22.233Z,1.73
2022-09-14T04:50:08.508Z,1.67
2022-09-14T04:53:04.046Z,1.97
2022-09-14T04:58:36.354Z,1.77
2022-09-14T05:01:25.339Z,1.53
2022-09-14T05:04:22.502Z,1.73
2022-09-14T05:07:05.668Z,1.70
2022-09-14T05:09:48.638Z,1.63
2022-09-14T05:12:26.655Z,1.50
2022-09-14T05:15:15.138Z,1.50
2022-09-14T05:18:20.133Z,1.50
2022-09-14T05:21:08.450Z,1.43
2022-09-14T05:27:01.587Z,1.73
2022-09-14T05:29:59.772Z,1.50
2022-09-14T05:32:44.721Z,1.33
2022-09-14T05:35:37.674Z,1.47
2022-09-14T05:38:19.164Z,1.57
2022-09-14T05:41:02.215Z,1.70
2022-09-14T05:43:51.597Z,1.50
2022-09-14T05:46:40.191Z,1.90
2022-09-14T05:49:18.162Z,1.40
2022-09-14T05:52:09.884Z,1.60
2022-09-14T05:54:49.143Z,1.40
2022-09-14T05:57:42.249Z,1.50
2022-09-14T06:00:21.617Z,1.67
2022-09-14T06:02:56.966Z,1.57
2022-09-14T06:05:31.394Z,1.37
2022-09-14T06:08:07.204Z,1.60
2022-09-14T06:10:43.108Z,1.60
2022-09-14T06:13:18.839Z,1.43
2022-09-14T06:15:55.652Z,1.30
2022-09-14T06:18:34.155Z,1.33
2022-09-14T06:21:14.063Z,1.50
2022-09-14T06:23:50.015Z,1.60
2022-09-14T06:26:42.571Z,1.40
2022-09-14T06:29:23.163Z,1.30
2022-09-14T06:32:18.210Z,1.70
2022-09-14T06:34:57.426Z,1.50
2022-09-14T06:37:46.301Z,1.23
2022-09-14T06:40:29.179Z,1.23
2022-09-14T06:43:02.329Z,1.30
2022-09-14T06:45:42.793Z,1.40
2022-09-14T06:48:18.369Z,1.60
2022-09-14T06:51:04.720Z,1.23
2022-09-14T06:54:08.686Z,1.33
2022-09-14T06:56:46.620Z,1.37
2022-09-14T06:59:18.582Z,1.20
2022-09-14T07:01:46.865Z,1.50
2022-09-14T07:04:18.059Z,1.30
2022-09-14T07:06:53.156Z,1.40
2022-09-14T07:09:29.690Z,1.20
2022-09-14T07:12:13.633Z,1.47
2022-09-14T07:14:50.164Z,1.27
2022-09-14T07:17:25.224Z,1.40
2022-09-14T07:20:00.588Z,1.40
2022-09-14T07:22:38.458Z,1.30
2022-09-14T07:25:11.795Z,1.30
2022-09-14T07:27:54.033Z,1.37
2022-09-14T07:30:28.130Z,1.40
2022-09-14T07:33:20.564Z,1.50
2022-09-14T07:35:51.038Z,1.50
2022-09-14T07:38:51.006Z,1.33
2022-09-14T07:41:28.111Z,1.40
2022-09-14T07:44:12.147Z,1.40
2022-09-14T07:47:22.345Z,1.37
2022-09-14T07:49:50.983Z,1.30
2022-09-14T07:52:25.744Z,1.50
2022-09-14T07:55:03.571Z,1.30
2022-09-14T07:57:57.002Z,1.50
2022-09-14T08:00:44.597Z,1.53
2022-09-14T08:03:35.014Z,1.20
2022-09-14T08:06:16.655Z,1.30
2022-09-14T08:09:31.524Z,1.30
2022-09-14T08:12:20.949Z,1.40
2022-09-14T08:15:15.707Z,1.43
2022-09-14T08:18:09.802Z,1.70
2022-09-14T08:21:09.752Z,1.07
2022-09-14T08:23:54.001Z,1.30
2022-09-14T08:26:38.059Z,1.57
2022-09-14T08:29:45.039Z,1.20
2022-09-14T08:32:47.095Z,1.67
2022-09-14T08:35:56.414Z,1.20
2022-09-14T08:38:31.089Z,1.10
2022-09-14T08:41:00.636Z,1.30
2022-09-14T08:43:28.548Z,1.30
2022-09-14T08:45:59.329Z,1.40
2022-09-14T08:48:31.005Z,1.20
2022-09-14T08:50:58.772Z,1.47
2022-09-14T08:53:26.715Z,1.13
2022-09-14T08:55:55.664Z,1.27
2022-09-14T08:58:32.479Z,1.40
2022-09-14T09:01:03.616Z,1.57
2022-09-14T09:03:44.843Z,1.60
2022-09-14T09:06:16.294Z,1.47
2022-09-14T09:08:50.785Z,1.37
2022-09-14T09:11:19.855Z,1.43
2022-09-14T09:13:48.143Z,1.27
2022-09-14T09:16:23.431Z,1.40
2022-09-14T09:18:54.553Z,1.40
2022-09-14T09:21:38.613Z,1.23
2022-09-14T09:24:24.266Z,1.20
2022-09-14T09:26:55.328Z,1.20
2022-09-14T09:29:31.930Z,1.40
2022-09-14T09:31:59.875Z,1.77
2022-09-14T09:34:34.007Z,1.30
2022-09-14T09:37:04.663Z,1.53
2022-09-14T09:39:38.130Z,1.40
2022-09-14T09:42:09.186Z,1.37
2022-09-14T09:45:04.196Z,1.70
2022-09-14T09:47:38.585Z,1.77
2022-09-14T09:50:22.258Z,2.10
2022-09-14T09:52:51.065Z,2.70
2022-09-14T09:55:20.277Z,2.10
2022-09-14T09:57:48.444Z,2.30
2022-09-14T10:00:21.631Z,2.70
2022-09-14T10:02:50.248Z,2.67
2022-09-14T10:05:23.992Z,2.70
2022-09-14T10:07:55.236Z,2.87
2022-09-14T10:10:26.923Z,2.50
2022-09-14T10:12:55.869Z,2.33
2022-09-14T10:15:25.797Z,2.03
2022-09-14T10:18:12.219Z,2.10
2022-09-14T10:20:43.128Z,2.37
2022-09-14T10:23:27.934Z,2.00
2022-09-14T10:26:20.101Z,1.90
2022-09-14T10:28:48.813Z,1.63
2022-09-14T10:31:29.918Z,1.87
2022-09-14T10:33:58.817Z,1.63
2022-09-14T10:36:30.492Z,1.47
2022-09-14T10:38:59.570Z,1.47
2022-09-14T10:41:31.332Z,1.30
2022-09-14T10:44:29.868Z,1.63
2022-09-14T10:47:06.873Z,1.27
2022-09-14T10:49:41.154Z,1.47
2022-09-14T10:52:14.918Z,1.30
2022-09-14T10:55:05.187Z,1.20
2022-09-14T10:57:40.186Z,1.57
2022-09-14T11:00:12.976Z,1.60
2022-09-14T11:02:50.492Z,1.30
2022-09-14T11:05:22.870Z,1.33
2022-09-14T11:07:59.336Z,1.30
2022-09-14T11:10:31.196Z,1.10
2022-09-14T11:13:46.328Z,1.27
2022-09-14T11:16:36.784Z,1.03
2022-09-14T11:19:07.698Z,1.10
2022-09-14T11:21:41.147Z,1.40
2022-09-14T11:24:15.568Z,1.10
2022-09-14T11:26:44.513Z,1.03
2022-09-14T11:29:17.526Z,1.10
2022-09-14T11:32:04.248Z,1.20
2022-09-14T11:34:37.264Z,1.10
2022-09-14T11:37:08.281Z,1.20
2022-09-14T11:39:38.999Z,1.07
2022-09-14T11:42:08.405Z,1.30
2022-09-14T11:44:38.508Z,1.40
2022-09-14T11:47:08.708Z,1.40
2022-09-14T11:49:42.220Z,0.90
2022-09-14T11:52:19.659Z,1.03
2022-09-14T11:54:48.862Z,1.27
2022-09-14T11:57:18.859Z,1.10
2022-09-14T11:59:51.987Z,1.67
2022-09-14T12:02:49.137Z,1.40
2022-09-14T12:05:41.265Z,1.10
2022-09-14T12:08:33.210Z,1.30
2022-09-14T12:11:21.294Z,1.20
2022-09-14T12:13:49.326Z,1.20
2022-09-14T12:16:17.361Z,1.37
2022-09-14T12:18:54.413Z,1.10
2022-09-14T12:21:23.728Z,1.00
2022-09-14T12:23:53.162Z,1.50
2022-09-14T12:26:40.269Z,1.40
2022-09-14T12:29:29.946Z,1.70
2022-09-14T12:32:26.695Z,2.43
2022-09-14T12:35:32.068Z,1.90
2022-09-14T12:38:00.049Z,2.60
2022-09-14T12:40:45.714Z,1.93
2022-09-14T12:43:55.781Z,2.27
2022-09-14T12:46:43.002Z,1.80
2022-09-14T12:49:38.005Z,1.93
2022-09-14T12:52:16.946Z,1.90
2022-09-14T12:54:51.576Z,1.83
2022-09-14T12:57:26.321Z,1.67
2022-09-14T12:59:58.672Z,1.87
2022-09-14T13:02:43.737Z,1.80
2022-09-14T13:05:13.936Z,1.30
2022-09-14T13:07:41.751Z,1.63
2022-09-14T13:10:18.557Z,1.70
2022-09-14T13:12:47.853Z,1.50
2022-09-14T13:15:20.385Z,1.70
2022-09-14T13:18:01.782Z,1.77
2022-09-14T13:20:30.511Z,2.03
2022-09-14T13:22:58.852Z,1.57
2022-09-14T13:25:29.022Z,1.80
2022-09-14T13:27:57.459Z,1.50
2022-09-14T13:30:27.516Z,1.27
2022-09-14T13:32:59.593Z,1.30
2022-09-14T13:35:31.889Z,1.50
2022-09-14T13:38:00.289Z,1.57
2022-09-14T13:40:30.621Z,1.80
2022-09-14T13:42:59.312Z,1.80
2022-09-14T13:45:29.747Z,1.37
2022-09-14T13:47:58.476Z,1.30
2022-09-14T13:50:27.180Z,1.90
2022-09-14T13:53:04.457Z,1.60
2022-09-14T13:55:44.053Z,1.50
2022-09-14T13:58:23.366Z,1.40
2022-09-14T14:00:58.293Z,1.37
2022-09-14T14:03:35.138Z,1.13
2022-09-14T14:06:06.388Z,1.00
2022-09-14T14:08:35.737Z,1.10
2022-09-14T14:11:05.007Z,1.30
2022-09-14T14:13:33.793Z,1.20
2022-09-14T14:16:16.922Z,1.30
2022-09-14T14:18:50.406Z,1.40
2022-09-14T14:21:28.131Z,1.20
2022-09-14T14:24:13.280Z,1.10
2022-09-14T14:26:42.145Z,1.37
2022-09-14T14:29:10.301Z,1.17
2022-09-14T14:31:39.879Z,1.30
2022-09-14T14:34:12.755Z,1.17
2022-09-14T14:36:40.900Z,1.30
2022-09-14T14:39:09.003Z,1.17
2022-09-14T14:41:37.067Z,1.10
2022-09-14T14:44:05.091Z,1.40
2022-09-14T14:46:34.077Z,1.20
2022-09-14T14:49:03.909Z,1.33
2022-09-14T14:51:32.144Z,1.20
2022-09-14T14:54:01.882Z,1.30
2022-09-14T14:56:29.924Z,1.20
2022-09-14T14:59:02.069Z,1.27
2022-09-14T15:01:30.431Z,1.30
2022-09-14T15:03:59.870Z,1.47
2022-09-14T15:06:30.485Z,1.93
2022-09-14T15:08:58.989Z,1.23
2022-09-14T15:11:27.393Z,1.40
2022-09-14T15:13:57.016Z,1.40
2022-09-14T15:16:25.990Z,1.47
2022-09-14T15:18:55.752Z,1.20
2022-09-14T15:21:30.912Z,1.30
2022-09-14T15:24:01.497Z,1.30
2022-09-14T15:26:29.565Z,1.30
2022-09-14T15:28:57.621Z,1.20
2022-09-14T15:31:25.806Z,1.57
2022-09-14T15:33:54.172Z,1.30
2022-09-14T15:36:39.132Z,1.17
2022-09-14T15:39:09.929Z,1.37
2022-09-14T15:41:38.353Z,1.20
2022-09-14T15:44:07.205Z,1.10
2022-09-14T15:46:35.614Z,1.30
2022-09-14T15:49:05.708Z,1.23
2022-09-14T15:51:34.520Z,1.00
2022-09-14T15:54:02.566Z,0.97
2022-09-14T15:56:31.997Z,1.10
2022-09-14T15:59:00.959Z,1.10
2022-09-14T16:01:29.178Z,1.10
2022-09-14T16:03:58.335Z,1.07
2022-09-14T16:06:26.311Z,1.23
2022-09-14T16:08:54.723Z,1.50
2022-09-14T16:11:22.636Z,1.20
2022-09-14T16:13:52.508Z,1.10
2022-09-14T16:16:21.331Z,1.27
2022-09-14T16:18:49.887Z,2.00
2022-09-14T16:21:19.675Z,1.50
2022-09-14T16:23:48.831Z,2.63
2022-09-14T16:26:18.505Z,2.00
2022-09-14T16:28:47.573Z,2.87
2022-09-14T16:31:18.775Z,2.50
2022-09-14T16:33:48.939Z,3.37
2022-09-14T16:36:17.718Z,3.40
2022-09-14T16:38:45.961Z,4.00
2022-09-14T16:41:14.529Z,3.83
2022-09-14T16:43:42.936Z,3.00
2022-09-14T16:46:12.549Z,2.10
2022-09-14T16:48:43.472Z,2.40
2022-09-14T16:51:11.605Z,2.67
2022-09-14T16:53:41.964Z,2.47
2022-09-14T16:56:10.820Z,2.00
2022-09-14T16:58:39.393Z,1.77
2022-09-14T17:01:08.396Z,2.20
2022-09-14T17:03:36.642Z,2.17
2022-09-14T17:06:08.417Z,2.10
2022-09-14T17:08:39.625Z,2.10
2022-09-14T17:11:10.179Z,2.37
2022-09-14T17:13:38.247Z,2.40
2022-09-14T17:16:08.846Z,2.40
2022-09-14T17:18:37.534Z,2.03
2022-09-14T17:21:09.267Z,2.33
2022-09-14T17:23:37.396Z,2.30
2022-09-14T17:26:07.006Z,1.87
2022-09-14T17:28:35.285Z,1.97
2022-09-14T17:31:04.648Z,2.07
2022-09-14T17:33:34.398Z,1.90
2022-09-14T17:36:02.989Z,1.97
2022-09-14T17:38:34.307Z,2.00
2022-09-14T17:41:03.392Z,2.00
2022-09-14T17:43:31.440Z,1.80
2022-09-14T17:45:59.866Z,1.60
2022-09-14T17:48:28.728Z,1.60
2022-09-14T17:50:57.057Z,1.70
2022-09-14T17:53:25.514Z,1.57
2022-09-14T17:55:55.605Z,1.70
2022-09-14T17:58:23.499Z,1.60
2022-09-14T18:00:51.986Z,1.50
2022-09-14T18:03:19.897Z,1.70
2022-09-14T18:05:55.846Z,1.77
2022-09-14T18:08:23.843Z,1.57
2022-09-14T18:10:52.315Z,1.40
2022-09-14T18:13:21.824Z,1.73
2022-09-14T18:15:55.792Z,1.80
2022-09-14T18:18:23.872Z,1.40
2022-09-14T18:20:52.521Z,1.77
2022-09-14T18:23:20.678Z,1.57
2022-09-14T18:25:49.026Z,1.43
2022-09-14T18:28:17.097Z,1.60
2022-09-14T18:30:46.548Z,1.60
2022-09-14T18:33:15.194Z,1.20
2022-09-14T18:35:43.100Z,1.20
2022-09-14T18:38:12.634Z,1.23
2022-09-14T18:40:40.812Z,1.30
2022-09-14T18:43:09.125Z,1.30
2022-09-14T18:45:37.195Z,1.50
2022-09-14T18:48:07.150Z,1.60
2022-09-14T18:50:35.227Z,1.73
2022-09-14T18:53:04.019Z,1.53
2022-09-14T18:55:33.180Z,1.40
2022-09-14T18:58:01.582Z,1.30
2022-09-14T19:00:29.557Z,1.17
2022-09-14T19:02:58.290Z,1.23
2022-09-14T19:05:27.828Z,1.07
2022-09-14T19:07:55.810Z,1.37
2022-09-14T19:10:23.700Z,1.30
2022-09-14T19:12:52.078Z,1.30
2022-09-14T19:15:20.235Z,1.13
2022-09-14T19:17:48.549Z,1.33
2022-09-14T19:20:18.152Z,1.33
2022-09-14T19:22:47.586Z,1.00
2022-09-14T19:25:15.905Z,1.40
2022-09-14T19:27:43.750Z,1.37
2022-09-14T19:30:12.773Z,1.37
2022-09-14T19:32:41.329Z,1.17
2022-09-14T19:35:12.092Z,1.37
2022-09-14T19:37:40.195Z,1.30
2022-09-14T19:40:10.731Z,1.07
2022-09-14T19:42:39.822Z,1.53
2022-09-14T19:45:08.798Z,1.17
2022-09-14T19:47:37.356Z,1.30
2022-09-14T19:50:06.479Z,1.57
2022-09-14T19:52:34.434Z,1.17
2022-09-14T19:55:02.447Z,1.40
2022-09-14T19:57:31.935Z,1.20
2022-09-14T19:59:59.815Z,1.47
2022-09-14T20:02:28.382Z,2.60
2022-09-14T20:04:56.847Z,3.30
2022-09-14T20:07:25.182Z,3.97
2022-09-14T20:09:53.856Z,4.53
2022-09-14T20:12:21.846Z,5.63
2022-09-14T20:14:51.269Z,5.40
2022-09-14T20:17:19.533Z,7.00
2022-09-14T20:19:47.945Z,7.40
2022-09-14T20:22:16.984Z,7.33
2022-09-14T20:24:45.192Z,6.97
2022-09-14T20:27:13.995Z,6.83
2022-09-14T20:29:42.451Z,6.13
2022-09-14T20:32:11.948Z,8.23
2022-09-14T20:34:39.910Z,8.17
2022-09-14T20:37:08.191Z,7.60
2022-09-14T20:39:38.289Z,7.73
2022-09-14T20:42:07.201Z,7.53
2022-09-14T20:44:35.110Z,7.30
2022-09-14T20:47:03.686Z,6.40
2022-09-14T20:49:33.455Z,6.43
2022-09-14T20:52:03.343Z,6.97
2022-09-14T20:54:31.422Z,7.17
2022-09-14T20:57:04.129Z,6.60
2022-09-14T20:59:33.158Z,6.27
2022-09-14T21:02:05.274Z,7.50
2022-09-14T21:04:35.293Z,6.60
2022-09-14T21:07:03.758Z,7.03
2022-09-14T21:09:33.524Z,6.63
2022-09-14T21:12:01.979Z,7.53
2022-09-14T21:14:30.611Z,7.27
2022-09-14T21:16:59.027Z,7.63
2022-09-14T21:19:28.095Z,7.43
2022-09-14T21:21:57.384Z,7.07
2022-09-14T21:24:25.607Z,7.20
2022-09-14T21:26:54.257Z,7.43
2022-09-14T21:29:24.692Z,8.17
2022-09-14T21:31:53.046Z,7.60
2022-09-14T21:34:21.544Z,8.27
2022-09-14T21:36:51.198Z,8.07
2022-09-14T21:39:23.095Z,8.50
2022-09-14T21:41:55.943Z,8.07
2022-09-14T21:44:30.098Z,8.13
2022-09-14T21:46:58.240Z,7.60
2022-09-14T21:49:26.665Z,7.47
2022-09-14T21:51:54.674Z,7.30
2022-09-14T21:54:24.670Z,8.93
2022-09-14T21:56:53.683Z,8.77
2022-09-14T21:59:23.039Z,7.77
2022-09-14T22:01:51.200Z,8.20
2022-09-14T22:04:21.016Z,8.47
2022-09-14T22:06:51.709Z,8.30
2022-09-14T22:09:20.524Z,7.97
2022-09-14T22:11:50.238Z,8.50
2022-09-14T22:14:20.003Z,8.47
2022-09-14T22:16:49.290Z,8.60
2022-09-14T22:19:18.041Z,7.97
2022-09-14T22:21:46.473Z,7.60
2022-09-14T22:24:17.384Z,7.10
2022-09-14T22:26:50.718Z,8.57
2022-09-14T22:29:18.979Z,7.47
2022-09-14T22:31:47.379Z,7.10
2022-09-14T22:34:16.051Z,7.00
2022-09-14T22:36:44.062Z,6.90
2022-09-14T22:39:12.504Z,7.27
2022-09-14T22:41:40.414Z,7.10
2022-09-14T22:44:09.652Z,7.10
2022-09-14T22:46:38.052Z,7.70
2022-09-14T22:49:06.108Z,7.03
2022-09-14T22:51:34.294Z,6.73
2022-09-14T22:54:02.320Z,6.37
2022-09-14T22:56:32.825Z,6.13
2022-09-14T22:59:01.123Z,6.60
2022-09-14T23:01:33.167Z,6.60
2022-09-14T23:04:04.340Z,6.87
2022-09-14T23:06:33.894Z,6.10
2022-09-14T23:09:02.833Z,5.87
2022-09-14T23:11:30.804Z,5.83
2022-09-14T23:13:58.803Z,6.30
2022-09-14T23:16:28.626Z,5.87
2022-09-14T23:18:58.884Z,6.80
2022-09-14T23:21:27.391Z,6.07
2022-09-14T23:23:56.473Z,6.03
2022-09-14T23:26:24.748Z,6.17
2022-09-14T23:28:54.120Z,5.50
2022-09-14T23:31:22.323Z,6.30
2022-09-14T23:33:51.599Z,6.60
2022-09-14T23:36:22.263Z,5.70
2022-09-14T23:38:50.441Z,6.07
2022-09-14T23:41:18.742Z,6.80
2022-09-14T23:43:46.902Z,6.70
2022-09-14T23:46:15.089Z,6.30
2022-09-14T23:48:43.558Z,6.60
2022-09-14T23:51:11.839Z,6.70
2022-09-14T23:53:40.974Z,6.20
2022-09-14T23:56:09.301Z,6.40
2022-09-14T23:58:37.442Z,6.37
